| time (UTC) | temp C | wind direction | speed KPH | gust KPH | rain 1hr cm | rain 24hr cm | rain mn cm | humidity % | barometer mb |
| 20260906052004 | 21 | 48 | 3.2 | 3.2 | 0.00 | 0.00 | 0.00 | 42 | 1015.9 |
| 20260906051504 | 21 | 299 | 3.2 | 3.2 | 0.00 | 0.00 | 0.00 | 41 | 1015.9 |
| 20260906051004 | 21 | 43 | 8.0 | 8.0 | 0.00 | 0.00 | 0.00 | 41 | 1015.6 |
| 20260906050505 | 21 | 75 | 0.0 | 0.0 | 0.00 | 0.00 | 0.00 | 42 | 1015.6 |
| 20260906050005 | 21 | 276 | 0.0 | 0.0 | 0.00 | 0.00 | 0.00 | 43 | 1015.6 |
| 20260906045504 | 21 | 107 | 0.0 | 0.0 | 0.00 | 0.00 | 0.00 | 42 | 1015.9 |
| 20260906045004 | 20 | 143 | 0.0 | 0.0 | 0.00 | 0.00 | 0.00 | 43 | 1015.9 |
| 20260906044504 | 20 | 142 | 0.0 | 0.0 | 0.00 | 0.00 | 0.00 | 43 | 1015.6 |
| 20260906044005 | 20 | 113 | 3.2 | 3.2 | 0.00 | 0.00 | 0.00 | 45 | 1015.6 |
| 20260906043505 | 20 | 150 | 0.0 | 0.0 | 0.00 | 0.00 | 0.00 | 44 | 1015.6 |
| 20260906043004 | 19 | 150 | 1.6 | 1.6 | 0.00 | 0.00 | 0.00 | 45 | 1015.6 |
| 20260906042504 | 20 | 74 | 3.2 | 3.2 | 0.00 | 0.00 | 0.00 | 45 | 1015.2 |
| 20260906042004 | 20 | 192 | 1.6 | 1.6 | 0.00 | 0.00 | 0.00 | 44 | 1015.6 |
| 20260906041504 | 20 | 216 | 3.2 | 3.2 | 0.00 | 0.00 | 0.00 | 43 | 1015.6 |
| 20260906041004 | 20 | 288 | 1.6 | 1.6 | 0.00 | 0.00 | 0.00 | 42 | 1015.2 |
| 20260906040504 | 21 | 288 | 3.2 | 3.2 | 0.00 | 0.00 | 0.00 | 41 | 1015.6 |
| 20260906040004 | 21 | 298 | 6.4 | 8.0 | 0.00 | 0.00 | 0.00 | 42 | 1015.2 |
| 20260906035504 | 20 | 294 | 3.2 | 3.2 | 0.00 | 0.00 | 0.00 | 42 | 1015.2 |
| 20260906035004 | 20 | 299 | 3.2 | 3.2 | 0.00 | 0.00 | 0.00 | 43 | 1015.2 |
| 20260906034504 | 20 | 299 | 0.0 | 0.0 | 0.00 | 0.00 | 0.00 | 44 | 1015.2 |
| 20260906034004 | 20 | 299 | 0.0 | 0.0 | 0.00 | 0.00 | 0.00 | 43 | 1015.2 |
| 20260906033504 | 21 | 299 | 0.0 | 0.0 | 0.00 | 0.00 | 0.00 | 42 | 1014.9 |
| 20260906033004 | 21 | 299 | 0.0 | 0.0 | 0.00 | 0.00 | 0.00 | 41 | 1014.9 |
| 20260906032504 | 21 | 300 | 3.2 | 3.2 | 0.00 | 0.00 | 0.00 | 41 | 1014.9 |
| 20260906032004 | 21 | 298 | 3.2 | 3.2 | 0.00 | 0.00 | 0.00 | 41 | 1014.9 |
| 20260906031504 | 21 | 299 | 3.2 | 3.2 | 0.00 | 0.00 | 0.00 | 41 | 1014.9 |
| 20260906031004 | 20 | 312 | 3.2 | 3.2 | 0.00 | 0.00 | 0.00 | 43 | 1014.9 |
| 20260906030504 | 20 | 312 | 0.0 | 0.0 | 0.00 | 0.00 | 0.00 | 45 | 1014.9 |
| 20260906030004 | 20 | 312 | 0.0 | 0.0 | 0.00 | 0.00 | 0.00 | 45 | 1014.9 |
| 20260906025504 | 20 | 312 | 0.0 | 0.0 | 0.00 | 0.00 | 0.00 | 44 | 1014.9 |
| 20260906025004 | 21 | 312 | 0.0 | 0.0 | 0.00 | 0.00 | 0.00 | 44 | 1014.9 |
| 20260906024504 | 21 | 312 | 0.0 | 0.0 | 0.00 | 0.00 | 0.00 | 44 | 1014.9 |
| 20260906024004 | 21 | 312 | 0.0 | 0.0 | 0.00 | 0.00 | 0.00 | 44 | 1014.9 |
| 20260906023504 | 20 | 312 | 0.0 | 0.0 | 0.00 | 0.00 | 0.00 | 44 | 1014.9 |
| 20260906023004 | 20 | 312 | 0.0 | 0.0 | 0.00 | 0.00 | 0.00 | 44 | 1014.9 |
| 20260906022504 | 21 | 312 | 0.0 | 0.0 | 0.00 | 0.00 | 0.00 | 45 | 1014.6 |
| 20260906022004 | 21 | 312 | 0.0 | 0.0 | 0.00 | 0.00 | 0.00 | 45 | 1014.9 |
| 20260906021504 | 21 | 312 | 0.0 | 0.0 | 0.00 | 0.00 | 0.00 | 46 | 1014.9 |
| 20260906021004 | 21 | 312 | 0.0 | 0.0 | 0.00 | 0.00 | 0.00 | 46 | 1014.9 |
| 20260906020504 | 21 | 312 | 0.0 | 0.0 | 0.00 | 0.00 | 0.00 | 45 | 1014.9 |
| 20260906020004 | 21 | 312 | 0.0 | 0.0 | 0.00 | 0.00 | 0.00 | 46 | 1014.9 |
| 20260906015504 | 21 | 312 | 1.6 | 1.6 | 0.00 | 0.00 | 0.00 | 45 | 1014.9 |
| 20260906015004 | 21 | 312 | 1.6 | 1.6 | 0.00 | 0.00 | 0.00 | 44 | 1014.9 |
| 20260906014504 | 21 | 312 | 1.6 | 1.6 | 0.00 | 0.00 | 0.00 | 44 | 1014.9 |
| 20260906014004 | 21 | 312 | 0.0 | 0.0 | 0.00 | 0.00 | 0.00 | 45 | 1014.9 |
| 20260906013504 | 21 | 312 | 0.0 | 0.0 | 0.00 | 0.00 | 0.00 | 45 | 1014.9 |
| 20260906013004 | 21 | 312 | 3.2 | 3.2 | 0.00 | 0.00 | 0.00 | 44 | 1014.9 |
| 20260906012504 | 21 | 312 | 3.2 | 3.2 | 0.00 | 0.00 | 0.00 | 44 | 1014.9 |
| 20260906012004 | 21 | 312 | 0.0 | 0.0 | 0.00 | 0.00 | 0.00 | 43 | 1014.9 |
| 20260906011504 | 21 | 312 | 1.6 | 1.6 | 0.00 | 0.00 | 0.00 | 43 | 1014.9 |
| 20260906011004 | 21 | 312 | 0.0 | 0.0 | 0.00 | 0.00 | 0.00 | 43 | 1014.9 |
| 20260906010504 | 21 | 312 | 0.0 | 0.0 | 0.00 | 0.00 | 0.00 | 43 | 1014.9 |
| 20260906010004 | 21 | 312 | 3.2 | 3.2 | 0.00 | 0.00 | 0.00 | 42 | 1014.9 |
| 20260906005505 | 21 | 312 | 0.0 | 0.0 | 0.00 | 0.00 | 0.00 | 44 | 1014.9 |
| 20260906005005 | 21 | 312 | 1.6 | 1.6 | 0.00 | 0.00 | 0.00 | 44 | 1014.9 |
| 20260906004505 | 21 | 312 | 0.0 | 0.0 | 0.00 | 0.00 | 0.00 | 44 | 1014.9 |
| 20260906004005 | 21 | 312 | 0.0 | 0.0 | 0.00 | 0.00 | 0.00 | 43 | 1014.6 |
| 20260906003504 | 21 | 312 | 3.2 | 3.2 | 0.00 | 0.00 | 0.00 | 45 | 1014.9 |
| 20260906003004 | 21 | 341 | 1.6 | 1.6 | 0.00 | 0.00 | 0.00 | 47 | 1014.9 |
| 20260906002504 | 21 | 341 | 0.0 | 0.0 | 0.00 | 0.00 | 0.00 | 46 | 1014.9 |
| 20260906002004 | 21 | 341 | 3.2 | 3.2 | 0.00 | 0.00 | 0.00 | 45 | 1014.9 |
| 20260906001508 | 21 | 341 | 0.0 | 0.0 | 0.00 | 0.00 | 0.00 | 44 | 1014.9 |
| 20260906001004 | 21 | 341 | 1.6 | 1.6 | 0.00 | 0.00 | 0.00 | 44 | 1015.2 |
| 20260906000504 | 21 | 341 | 1.6 | 1.6 | 0.00 | 0.00 | 0.00 | 45 | 1015.2 |
| 20260906000004 | 21 | 342 | 0.0 | 0.0 | 0.00 | 0.00 | 0.00 | 44 | 1014.9 |
| 20260905235505 | 21 | 348 | 0.0 | 0.0 | 0.00 | 0.00 | 0.00 | 44 | 1014.9 |
| 20260905235005 | 21 | 348 | 0.0 | 0.0 | 0.00 | 0.00 | 0.00 | 45 | 1015.2 |
| 20260905234504 | 21 | 348 | 0.0 | 0.0 | 0.00 | 0.00 | 0.00 | 45 | 1014.9 |
| 20260905234004 | 21 | 348 | 0.0 | 0.0 | 0.00 | 0.00 | 0.00 | 44 | 1014.9 |
| 20260905233504 | 21 | 348 | 3.2 | 3.2 | 0.00 | 0.00 | 0.00 | 45 | 1014.9 |
| 20260905233004 | 21 | 349 | 0.0 | 0.0 | 0.00 | 0.00 | 0.00 | 45 | 1014.9 |
| 20260905232504 | 21 | 349 | 0.0 | 0.0 | 0.00 | 0.00 | 0.00 | 44 | 1014.9 |
| 20260905232004 | 22 | 349 | 0.0 | 0.0 | 0.00 | 0.00 | 0.00 | 44 | 1014.9 |
| 20260905231504 | 22 | 349 | 0.0 | 0.0 | 0.00 | 0.00 | 0.00 | 44 | 1014.9 |
| 20260905231004 | 22 | 349 | 0.0 | 0.0 | 0.00 | 0.00 | 0.00 | 43 | 1015.2 |
| 20260905230504 | 22 | 349 | 0.0 | 0.0 | 0.00 | 0.00 | 0.00 | 43 | 1014.9 |
| 20260905230004 | 22 | 349 | 0.0 | 0.0 | 0.00 | 0.00 | 0.00 | 43 | 1014.9 |
| 20260905225504 | 22 | 349 | 0.0 | 0.0 | 0.00 | 0.00 | 0.00 | 42 | 1014.9 |
| 20260905225004 | 22 | 349 | 0.0 | 0.0 | 0.00 | 0.00 | 0.00 | 42 | 1014.9 |
| 20260905224504 | 22 | 306 | 0.0 | 0.0 | 0.00 | 0.00 | 0.00 | 44 | 1015.2 |
| 20260905224004 | 22 | 306 | 0.0 | 0.0 | 0.00 | 0.00 | 0.00 | 43 | 1015.2 |
| 20260905223504 | 22 | 306 | 0.0 | 0.0 | 0.00 | 0.00 | 0.00 | 43 | 1015.2 |
| 20260905223005 | 22 | 306 | 0.0 | 0.0 | 0.00 | 0.00 | 0.00 | 43 | 1015.2 |
| 20260905222504 | 22 | 306 | 0.0 | 0.0 | 0.00 | 0.00 | 0.00 | 43 | 1015.2 |
| 20260905222004 | 22 | 306 | 0.0 | 0.0 | 0.00 | 0.00 | 0.00 | 42 | 1015.2 |
| 20260905221505 | 22 | 306 | 0.0 | 0.0 | 0.00 | 0.00 | 0.00 | 44 | 1015.2 |
| 20260905221004 | 22 | 306 | 3.2 | 3.2 | 0.00 | 0.00 | 0.00 | 43 | 1015.2 |
| 20260905220504 | 22 | 12 | 1.6 | 1.6 | 0.00 | 0.00 | 0.00 | 44 | 1015.6 |
| 20260905220004 | 22 | 12 | 0.0 | 0.0 | 0.00 | 0.00 | 0.00 | 44 | 1014.9 |
| 20260905215504 | 22 | 10 | 1.6 | 1.6 | 0.00 | 0.00 | 0.00 | 44 | 1014.9 |
| 20260905215004 | 22 | 9 | 0.0 | 0.0 | 0.00 | 0.00 | 0.00 | 43 | 1015.2 |
| 20260905214504 | 22 | 9 | 0.0 | 0.0 | 0.00 | 0.00 | 0.00 | 43 | 1015.2 |
| 20260905214004 | 22 | 9 | 0.0 | 0.0 | 0.00 | 0.00 | 0.00 | 43 | 1015.2 |
| 20260905213505 | 22 | 9 | 0.0 | 0.0 | 0.00 | 0.00 | 0.00 | 43 | 1015.2 |
| 20260905213004 | 22 | 9 | 3.2 | 3.2 | 0.00 | 0.00 | 0.00 | 43 | 1015.2 |
| 20260905212504 | 22 | 294 | 0.0 | 0.0 | 0.00 | 0.00 | 0.00 | 42 | 1015.2 |
| 20260905212004 | 22 | 294 | 1.6 | 1.6 | 0.00 | 0.00 | 0.00 | 42 | 1015.2 |
| 20260905211504 | 22 | 204 | 0.0 | 0.0 | 0.00 | 0.00 | 0.00 | 44 | 1015.2 |
| 20260905211004 | 22 | 204 | 0.0 | 0.0 | 0.00 | 0.00 | 0.00 | 43 | 1015.6 |
| 20260905210504 | 23 | 204 | 0.0 | 0.0 | 0.00 | 0.00 | 0.00 | 43 | 1015.6 |
| 20260905210005 | 23 | 204 | 0.0 | 0.0 | 0.00 | 0.00 | 0.00 | 42 | 1015.2 |
| 20260905205504 | 23 | 204 | 0.0 | 0.0 | 0.00 | 0.00 | 0.00 | 42 | 1015.2 |
| 20260905205004 | 23 | 204 | 0.0 | 0.0 | 0.00 | 0.00 | 0.00 | 43 | 1015.2 |
| 20260905204504 | 23 | 204 | 0.0 | 0.0 | 0.00 | 0.00 | 0.00 | 41 | 1015.2 |
| 20260905204004 | 23 | 204 | 0.0 | 0.0 | 0.00 | 0.00 | 0.00 | 41 | 1014.9 |
| 20260905203504 | 22 | 204 | 0.0 | 0.0 | 0.00 | 0.00 | 0.00 | 43 | 1015.2 |
| 20260905203004 | 23 | 204 | 0.0 | 0.0 | 0.00 | 0.00 | 0.00 | 42 | 1015.2 |
| 20260905202504 | 23 | 204 | 0.0 | 0.0 | 0.00 | 0.00 | 0.00 | 41 | 1014.9 |
| 20260905202004 | 23 | 204 | 0.0 | 0.0 | 0.00 | 0.00 | 0.00 | 41 | 1015.2 |
| 20260905201504 | 23 | 204 | 0.0 | 0.0 | 0.00 | 0.00 | 0.00 | 41 | 1015.2 |
| 20260905201004 | 23 | 204 | 0.0 | 0.0 | 0.00 | 0.00 | 0.00 | 40 | 1015.2 |
| 20260905200504 | 23 | 204 | 0.0 | 0.0 | 0.00 | 0.00 | 0.00 | 39 | 1015.2 |
| 20260905200004 | 23 | 204 | 0.0 | 0.0 | 0.00 | 0.00 | 0.00 | 40 | 1015.2 |
| 20260905195504 | 23 | 204 | 0.0 | 0.0 | 0.00 | 0.00 | 0.00 | 40 | 1015.6 |
| 20260905195004 | 23 | 204 | 0.0 | 0.0 | 0.00 | 0.00 | 0.00 | 39 | 1014.9 |
| 20260905194504 | 23 | 204 | 0.0 | 0.0 | 0.00 | 0.00 | 0.00 | 37 | 1015.2 |
| 20260905194004 | 24 | 204 | 0.0 | 0.0 | 0.00 | 0.00 | 0.00 | 36 | 1015.2 |
| 20260905193504 | 25 | 204 | 0.0 | 0.0 | 0.00 | 0.00 | 0.00 | 36 | 1014.9 |
| 20260905193004 | 25 | 204 | 0.0 | 0.0 | 0.00 | 0.00 | 0.00 | 37 | 1015.2 |
| 20260905192505 | 25 | 204 | 3.2 | 3.2 | 0.00 | 0.00 | 0.00 | 35 | 1015.2 |
| 20260905192005 | 24 | 204 | 3.2 | 3.2 | 0.00 | 0.00 | 0.00 | 36 | 1015.2 |
| 20260905191504 | 25 | 204 | 0.0 | 0.0 | 0.00 | 0.00 | 0.00 | 37 | 1014.9 |
| 20260905191005 | 24 | 204 | 0.0 | 0.0 | 0.00 | 0.00 | 0.00 | 35 | 1014.9 |
| 20260905190504 | 24 | 204 | 0.0 | 0.0 | 0.00 | 0.00 | 0.00 | 37 | 1014.9 |
| 20260905190004 | 24 | 204 | 0.0 | 0.0 | 0.00 | 0.00 | 0.00 | 38 | 1014.9 |
| 20260905185504 | 25 | 204 | 0.0 | 0.0 | 0.00 | 0.00 | 0.00 | 38 | 1014.9 |
| 20260905185004 | 25 | 204 | 0.0 | 0.0 | 0.00 | 0.00 | 0.00 | 36 | 1014.9 |
| 20260905184504 | 25 | 204 | 0.0 | 0.0 | 0.00 | 0.00 | 0.00 | 37 | 1014.9 |
| 20260905184005 | 25 | 204 | 0.0 | 0.0 | 0.00 | 0.00 | 0.00 | 37 | 1014.9 |
| 20260905183504 | 25 | 204 | 0.0 | 0.0 | 0.00 | 0.00 | 0.00 | 37 | 1014.9 |
| 20260905183005 | 25 | 204 | 0.0 | 0.0 | 0.00 | 0.00 | 0.00 | 36 | 1014.9 |
| 20260905182505 | 25 | 204 | 0.0 | 0.0 | 0.00 | 0.00 | 0.00 | 36 | 1014.9 |
| 20260905182005 | 26 | 204 | 0.0 | 0.0 | 0.00 | 0.00 | 0.00 | 35 | 1014.6 |
| 20260905181504 | 26 | 204 | 0.0 | 0.0 | 0.00 | 0.00 | 0.00 | 34 | 1014.6 |
| 20260905181005 | 26 | 204 | 0.0 | 0.0 | 0.00 | 0.00 | 0.00 | 34 | 1014.6 |
| 20260905180505 | 26 | 204 | 0.0 | 0.0 | 0.00 | 0.00 | 0.00 | 34 | 1014.9 |
| 20260905180005 | 26 | 204 | 0.0 | 0.0 | 0.00 | 0.00 | 0.00 | 35 | 1014.6 |
| 20260905175504 | 26 | 204 | 3.2 | 3.2 | 0.00 | 0.00 | 0.00 | 33 | 1014.6 |
| 20260905175005 | 25 | 203 | 0.0 | 0.0 | 0.00 | 0.00 | 0.00 | 36 | 1014.6 |
| 20260905174505 | 26 | 203 | 0.0 | 0.0 | 0.00 | 0.00 | 0.00 | 34 | 1014.6 |
| 20260905174004 | 26 | 203 | 0.0 | 0.0 | 0.00 | 0.00 | 0.00 | 35 | 1014.2 |
| 20260905173504 | 26 | 203 | 0.0 | 0.0 | 0.00 | 0.00 | 0.00 | 34 | 1014.2 |
| 20260905173004 | 26 | 203 | 0.0 | 0.0 | 0.00 | 0.00 | 0.00 | 34 | 1014.2 |
| 20260905172504 | 26 | 203 | 0.0 | 0.0 | 0.00 | 0.00 | 0.00 | 31 | 1013.9 |
| 20260905172004 | 26 | 203 | 1.6 | 1.6 | 0.00 | 0.00 | 0.00 | 32 | 1014.2 |
| 20260905171504 | 26 | 203 | 0.0 | 0.0 | 0.00 | 0.00 | 0.00 | 33 | 1014.2 |
| 20260905171004 | 27 | 203 | 0.0 | 0.0 | 0.00 | 0.00 | 0.00 | 32 | 1014.2 |
| 20260905170505 | 27 | 161 | 1.6 | 1.6 | 0.00 | 0.00 | 0.00 | 32 | 1014.2 |
| 20260905170004 | 27 | 160 | 0.0 | 0.0 | 0.00 | 0.00 | 0.00 | 31 | 1014.2 |
| 20260905165504 | 27 | 160 | 1.6 | 1.6 | 0.00 | 0.00 | 0.00 | 31 | 1014.2 |
| 20260905165005 | 27 | 160 | 3.2 | 3.2 | 0.00 | 0.00 | 0.00 | 30 | 1013.9 |
| 20260905164504 | 27 | 111 | 0.0 | 0.0 | 0.00 | 0.00 | 0.00 | 30 | 1013.9 |
| 20260905164004 | 28 | 111 | 0.0 | 0.0 | 0.00 | 0.00 | 0.00 | 32 | 1013.9 |
| 20260905163504 | 28 | 111 | 1.6 | 1.6 | 0.00 | 0.00 | 0.00 | 30 | 1014.2 |
| 20260905163004 | 28 | 108 | 3.2 | 3.2 | 0.00 | 0.00 | 0.00 | 29 | 1013.9 |
| 20260905162504 | 28 | 120 | 3.2 | 3.2 | 0.00 | 0.00 | 0.00 | 29 | 1013.9 |
| 20260905162004 | 29 | 129 | 3.2 | 3.2 | 0.00 | 0.00 | 0.00 | 28 | 1013.9 |
| 20260905161504 | 29 | 178 | 3.2 | 3.2 | 0.00 | 0.00 | 0.00 | 28 | 1013.9 |
| 20260905161004 | 29 | 133 | 3.2 | 3.2 | 0.00 | 0.00 | 0.00 | 28 | 1013.9 |
| 20260905160504 | 29 | 140 | 3.2 | 3.2 | 0.00 | 0.00 | 0.00 | 28 | 1013.9 |
| 20260905160004 | 30 | 173 | 3.2 | 3.2 | 0.00 | 0.00 | 0.00 | 27 | 1013.9 |
| 20260905155504 | 30 | 90 | 6.4 | 8.0 | 0.00 | 0.00 | 0.00 | 27 | 1013.9 |
| 20260905155004 | 30 | 113 | 3.2 | 3.2 | 0.00 | 0.00 | 0.00 | 27 | 1013.9 |
| 20260905154505 | 30 | 127 | 1.6 | 1.6 | 0.00 | 0.00 | 0.00 | 26 | 1013.9 |
| 20260905154005 | 30 | 193 | 6.4 | 6.4 | 0.00 | 0.00 | 0.00 | 26 | 1013.9 |
| 20260905153504 | 30 | 112 | 3.2 | 3.2 | 0.00 | 0.00 | 0.00 | 26 | 1013.9 |
| 20260905153004 | 30 | 91 | 3.2 | 3.2 | 0.00 | 0.00 | 0.00 | 26 | 1013.9 |
| 20260905152505 | 30 | 72 | 4.8 | 4.8 | 0.00 | 0.00 | 0.00 | 23 | 1013.9 |
| 20260905152004 | 30 | 36 | 3.2 | 3.2 | 0.00 | 0.00 | 0.00 | 24 | 1013.9 |
| 20260905151504 | 30 | 30 | 4.8 | 4.8 | 0.00 | 0.00 | 0.00 | 24 | 1013.9 |
| 20260905151004 | 30 | 65 | 6.4 | 6.4 | 0.00 | 0.00 | 0.00 | 24 | 1013.9 |
| 20260905150505 | 30 | 49 | 8.0 | 8.0 | 0.00 | 0.00 | 0.00 | 23 | 1013.9 |
| 20260905150005 | 31 | 314 | 3.2 | 3.2 | 0.00 | 0.00 | 0.00 | 21 | 1013.9 |
| 20260905145504 | 30 | 37 | 8.0 | 9.7 | 0.00 | 0.00 | 0.00 | 22 | 1013.9 |
| 20260905145004 | 30 | 348 | 8.0 | 8.0 | 0.00 | 0.00 | 0.00 | 22 | 1013.9 |
| 20260905144504 | 30 | 0 | 4.8 | 4.8 | 0.00 | 0.00 | 0.00 | 21 | 1013.9 |
| 20260905144004 | 30 | 30 | 8.0 | 9.7 | 0.00 | 0.00 | 0.00 | 20 | 1013.9 |
| 20260905143505 | 31 | 64 | 6.4 | 6.4 | 0.00 | 0.00 | 0.00 | 21 | 1013.9 |
| 20260905143005 | 31 | 186 | 3.2 | 3.2 | 0.00 | 0.00 | 0.00 | 20 | 1013.9 |
| 20260905142505 | 30 | 90 | 3.2 | 3.2 | 0.00 | 0.00 | 0.00 | 20 | 1014.2 |
| 20260905142005 | 30 | 64 | 8.0 | 8.0 | 0.00 | 0.00 | 0.00 | 22 | 1013.9 |
| 20260905141504 | 30 | 36 | 6.4 | 8.0 | 0.00 | 0.00 | 0.00 | 21 | 1013.9 |
| 20260905141004 | 31 | 190 | 6.4 | 6.4 | 0.00 | 0.00 | 0.00 | 21 | 1014.2 |
| 20260905140504 | 30 | 318 | 3.2 | 3.2 | 0.00 | 0.00 | 0.00 | 22 | 1014.2 |
| 20260905140004 | 30 | 102 | 8.0 | 8.0 | 0.00 | 0.00 | 0.00 | 22 | 1014.2 |
| 20260905135504 | 30 | 66 | 6.4 | 6.4 | 0.00 | 0.00 | 0.00 | 23 | 1014.2 |
| 20260905135004 | 31 | 59 | 8.0 | 8.0 | 0.00 | 0.00 | 0.00 | 22 | 1014.2 |
| 20260905134504 | 30 | 235 | 4.8 | 4.8 | 0.00 | 0.00 | 0.00 | 22 | 1014.2 |
| 20260905134004 | 30 | 30 | 3.2 | 3.2 | 0.00 | 0.00 | 0.00 | 23 | 1014.6 |
| 20260905133504 | 30 | 137 | 4.8 | 4.8 | 0.00 | 0.00 | 0.00 | 22 | 1014.6 |
| 20260905133005 | 30 | 74 | 3.2 | 3.2 | 0.00 | 0.00 | 0.00 | 24 | 1014.2 |
| 20260905132504 | 30 | 30 | 6.4 | 6.4 | 0.00 | 0.00 | 0.00 | 24 | 1014.6 |
| 20260905132004 | 31 | 271 | 3.2 | 3.2 | 0.00 | 0.00 | 0.00 | 24 | 1014.6 |
| 20260905131504 | 30 | 265 | 4.8 | 4.8 | 0.00 | 0.00 | 0.00 | 24 | 1014.6 |
| 20260905131005 | 30 | 228 | 4.8 | 4.8 | 0.00 | 0.00 | 0.00 | 25 | 1014.6 |
| 20260905130504 | 30 | 204 | 3.2 | 3.2 | 0.00 | 0.00 | 0.00 | 24 | 1014.6 |
| 20260905130005 | 30 | 294 | 3.2 | 3.2 | 0.00 | 0.00 | 0.00 | 26 | 1014.9 |
| 20260905125505 | 30 | 180 | 1.6 | 1.6 | 0.00 | 0.00 | 0.00 | 25 | 1014.6 |
| 20260905125005 | 30 | 239 | 4.8 | 4.8 | 0.00 | 0.00 | 0.00 | 26 | 1014.9 |
| 20260905124504 | 30 | 178 | 6.4 | 8.0 | 0.00 | 0.00 | 0.00 | 26 | 1014.9 |
| 20260905124004 | 30 | 102 | 3.2 | 3.2 | 0.00 | 0.00 | 0.00 | 26 | 1014.9 |
| 20260905123504 | 30 | 132 | 3.2 | 3.2 | 0.00 | 0.00 | 0.00 | 26 | 1014.9 |
| 20260905123005 | 30 | 132 | 6.4 | 8.0 | 0.00 | 0.00 | 0.00 | 26 | 1014.9 |
| 20260905122505 | 30 | 108 | 3.2 | 3.2 | 0.00 | 0.00 | 0.00 | 27 | 1014.9 |
| 20260905122004 | 30 | 180 | 8.0 | 9.7 | 0.00 | 0.00 | 0.00 | 25 | 1014.9 |
| 20260905121505 | 30 | 241 | 3.2 | 3.2 | 0.00 | 0.00 | 0.00 | 26 | 1014.9 |
| 20260905121005 | 30 | 340 | 3.2 | 3.2 | 0.00 | 0.00 | 0.00 | 28 | 1014.9 |
| 20260905120504 | 30 | 209 | 3.2 | 3.2 | 0.00 | 0.00 | 0.00 | 25 | 1015.2 |
| 20260905120004 | 30 | 264 | 3.2 | 3.2 | 0.00 | 0.00 | 0.00 | 26 | 1015.2 |
| 20260905115504 | 30 | 201 | 6.4 | 6.4 | 0.00 | 0.00 | 0.00 | 26 | 1015.2 |
| 20260905115004 | 28 | 229 | 3.2 | 3.2 | 0.00 | 0.00 | 0.00 | 27 | 1015.2 |
| 20260905114504 | 28 | 282 | 9.7 | 9.7 | 0.00 | 0.00 | 0.00 | 29 | 1015.6 |
| 20260905114004 | 29 | 228 | 4.8 | 4.8 | 0.00 | 0.00 | 0.00 | 28 | 1015.6 |
| 20260905113505 | 28 | 308 | 8.0 | 8.0 | 0.00 | 0.00 | 0.00 | 29 | 1015.6 |
| 20260905113005 | 29 | 228 | 6.4 | 6.4 | 0.00 | 0.00 | 0.00 | 27 | 1015.6 |
| 20260905112505 | 29 | 137 | 6.4 | 6.4 | 0.00 | 0.00 | 0.00 | 27 | 1015.6 |
| 20260905112004 | 28 | 120 | 6.4 | 6.4 | 0.00 | 0.00 | 0.00 | 27 | 1015.6 |
| 20260905111504 | 28 | 142 | 0.0 | 0.0 | 0.00 | 0.00 | 0.00 | 28 | 1015.6 |
| 20260905111004 | 28 | 150 | 4.8 | 4.8 | 0.00 | 0.00 | 0.00 | 28 | 1015.6 |
| 20260905110504 | 28 | 172 | 6.4 | 6.4 | 0.00 | 0.00 | 0.00 | 29 | 1015.6 |
| 20260905110004 | 28 | 125 | 8.0 | 8.0 | 0.00 | 0.00 | 0.00 | 29 | 1015.9 |
| 20260905105504 | 28 | 168 | 8.0 | 9.7 | 0.00 | 0.00 | 0.00 | 30 | 1015.6 |
| 20260905105004 | 27 | 174 | 9.7 | 9.7 | 0.00 | 0.00 | 0.00 | 29 | 1015.9 |
| 20260905104504 | 28 | 152 | 6.4 | 6.4 | 0.00 | 0.00 | 0.00 | 31 | 1015.9 |
| 20260905104004 | 28 | 107 | 4.8 | 4.8 | 0.00 | 0.00 | 0.00 | 31 | 1015.6 |
| 20260905103504 | 27 | 198 | 6.4 | 6.4 | 0.00 | 0.00 | 0.00 | 31 | 1015.9 |
| 20260905103004 | 28 | 162 | 8.0 | 8.0 | 0.00 | 0.00 | 0.00 | 31 | 1015.9 |
| 20260905102504 | 27 | 64 | 9.7 | 11.3 | 0.00 | 0.00 | 0.00 | 31 | 1015.6 |
| 20260905102004 | 27 | 294 | 3.2 | 3.2 | 0.00 | 0.00 | 0.00 | 32 | 1015.9 |
| 20260905101505 | 27 | 167 | 6.4 | 6.4 | 0.00 | 0.00 | 0.00 | 31 | 1015.9 |
| 20260905101004 | 27 | 84 | 8.0 | 8.0 | 0.00 | 0.00 | 0.00 | 32 | 1015.9 |
| 20260905100504 | 27 | 179 | 3.2 | 3.2 | 0.00 | 0.00 | 0.00 | 31 | 1015.9 |
| 20260905100004 | 27 | 180 | 4.8 | 4.8 | 0.00 | 0.00 | 0.00 | 32 | 1016.3 |
| 20260905095504 | 27 | 216 | 6.4 | 8.0 | 0.00 | 0.00 | 0.00 | 32 | 1015.9 |
| 20260905095005 | 27 | 32 | 3.2 | 3.2 | 0.00 | 0.00 | 0.00 | 32 | 1016.3 |
| 20260905094505 | 27 | 166 | 3.2 | 3.2 | 0.00 | 0.00 | 0.00 | 31 | 1016.3 |
| 20260905094005 | 27 | 174 | 11.3 | 11.3 | 0.00 | 0.00 | 0.00 | 32 | 1015.9 |
| 20260905093504 | 27 | 183 | 3.2 | 3.2 | 0.00 | 0.00 | 0.00 | 33 | 1016.3 |
| 20260905093005 | 27 | 168 | 1.6 | 1.6 | 0.00 | 0.00 | 0.00 | 34 | 1016.3 |
| 20260905092505 | 27 | 86 | 6.4 | 6.4 | 0.00 | 0.00 | 0.00 | 30 | 1016.3 |
| 20260905092005 | 27 | 213 | 3.2 | 3.2 | 0.00 | 0.00 | 0.00 | 28 | 1016.3 |
| 20260905091504 | 27 | 155 | 3.2 | 3.2 | 0.00 | 0.00 | 0.00 | 27 | 1016.3 |
| 20260905091004 | 26 | 227 | 6.4 | 6.4 | 0.00 | 0.00 | 0.00 | 30 | 1016.3 |
| 20260905090504 | 26 | 242 | 6.4 | 8.0 | 0.00 | 0.00 | 0.00 | 30 | 1016.3 |
| 20260905090004 | 26 | 18 | 3.2 | 3.2 | 0.00 | 0.00 | 0.00 | 30 | 1016.3 |
| 20260905085504 | 26 | 222 | 6.4 | 8.0 | 0.00 | 0.00 | 0.00 | 32 | 1016.6 |
| 20260905085004 | 26 | 253 | 4.8 | 4.8 | 0.00 | 0.00 | 0.00 | 31 | 1016.3 |
| 20260905084504 | 25 | 25 | 12.9 | 12.9 | 0.00 | 0.00 | 0.00 | 33 | 1016.6 |
| 20260905084005 | 26 | 288 | 6.4 | 6.4 | 0.00 | 0.00 | 0.00 | 32 | 1016.3 |
| 20260905083504 | 26 | 156 | 3.2 | 3.2 | 0.00 | 0.00 | 0.00 | 31 | 1016.6 |
| 20260905083004 | 26 | 32 | 3.2 | 3.2 | 0.00 | 0.00 | 0.00 | 32 | 1016.6 |
| 20260905082504 | 25 | 54 | 3.2 | 3.2 | 0.00 | 0.00 | 0.00 | 34 | 1016.6 |
| 20260905082005 | 25 | 48 | 9.7 | 11.3 | 0.00 | 0.00 | 0.00 | 34 | 1016.6 |
| 20260905081504 | 25 | 36 | 6.4 | 6.4 | 0.00 | 0.00 | 0.00 | 34 | 1016.6 |
| 20260905081003 | 25 | 312 | 3.2 | 3.2 | 0.00 | 0.00 | 0.00 | 34 | 1016.6 |
| 20260905080505 | 26 | 36 | 9.7 | 11.3 | 0.00 | 0.00 | 0.00 | 35 | 1016.6 |
| 20260905080004 | 25 | 18 | 8.0 | 9.7 | 0.00 | 0.00 | 0.00 | 35 | 1016.6 |
| 20260905075504 | 25 | 0 | 8.0 | 9.7 | 0.00 | 0.00 | 0.00 | 35 | 1016.6 |
| 20260905075004 | 25 | 42 | 8.0 | 8.0 | 0.00 | 0.00 | 0.00 | 36 | 1016.6 |
| 20260905074505 | 25 | 30 | 3.2 | 3.2 | 0.00 | 0.00 | 0.00 | 37 | 1016.6 |
| 20260905074004 | 25 | 36 | 9.7 | 11.3 | 0.00 | 0.00 | 0.00 | 37 | 1016.6 |
| 20260905073504 | 24 | 20 | 8.0 | 9.7 | 0.00 | 0.00 | 0.00 | 37 | 1016.6 |
| 20260905073004 | 25 | 20 | 11.3 | 11.3 | 0.00 | 0.00 | 0.00 | 37 | 1016.6 |
| 20260905072504 | 25 | 336 | 9.7 | 9.7 | 0.00 | 0.00 | 0.00 | 37 | 1016.6 |
| 20260905072004 | 25 | 59 | 3.2 | 3.2 | 0.00 | 0.00 | 0.00 | 36 | 1016.3 |
| 20260905071504 | 25 | 18 | 3.2 | 3.2 | 0.00 | 0.00 | 0.00 | 36 | 1016.3 |
| 20260905071004 | 25 | 354 | 6.4 | 6.4 | 0.00 | 0.00 | 0.00 | 37 | 1016.3 |
| 20260905070504 | 25 | 36 | 3.2 | 3.2 | 0.00 | 0.00 | 0.00 | 35 | 1016.6 |
| 20260905070005 | 24 | 37 | 6.4 | 6.4 | 0.00 | 0.00 | 0.00 | 36 | 1016.3 |
| 20260905065504 | 24 | 52 | 3.2 | 3.2 | 0.00 | 0.00 | 0.00 | 38 | 1016.3 |
| 20260905065004 | 24 | 30 | 4.8 | 4.8 | 0.00 | 0.00 | 0.00 | 38 | 1016.3 |
| 20260905064504 | 24 | 270 | 6.4 | 6.4 | 0.00 | 0.00 | 0.00 | 37 | 1016.3 |
| 20260905064004 | 23 | 60 | 3.2 | 3.2 | 0.00 | 0.00 | 0.00 | 37 | 1016.3 |
| 20260905063504 | 23 | 24 | 14.5 | 17.7 | 0.00 | 0.00 | 0.00 | 39 | 1016.3 |
| 20260905063004 | 23 | 18 | 6.4 | 8.0 | 0.00 | 0.00 | 0.00 | 39 | 1016.3 |
| 20260905062504 | 23 | 272 | 6.4 | 6.4 | 0.00 | 0.00 | 0.00 | 39 | 1016.3 |
| 20260905062004 | 23 | 276 | 0.0 | 0.0 | 0.00 | 0.00 | 0.00 | 39 | 1016.6 |
| 20260905061504 | 23 | 73 | 0.0 | 0.0 | 0.00 | 0.00 | 0.00 | 38 | 1016.6 |
| 20260905061004 | 25 | 157 | 3.2 | 3.2 | 0.00 | 0.00 | 0.00 | 37 | 1016.6 |
| 20260905060504 | 24 | 168 | 1.6 | 1.6 | 0.00 | 0.00 | 0.00 | 35 | 1016.6 |
| 20260905060004 | 23 | 168 | 1.6 | 1.6 | 0.00 | 0.00 | 0.00 | 39 | 1016.6 |
| 20260905055504 | 22 | 168 | 3.2 | 3.2 | 0.00 | 0.00 | 0.00 | 41 | 1016.6 |
| 20260905055004 | 22 | 178 | 3.2 | 3.2 | 0.00 | 0.00 | 0.00 | 42 | 1016.6 |
| 20260905054805 | -17 | 0 | 0.0 | 0.0 | 0.00 | 0.00 | 0.00 | 100 | |
| 20260905054004 | 21 | 192 | 3.2 | 3.2 | 0.00 | 0.00 | 0.00 | 43 | 1016.6 |
| 20260905053504 | 21 | 188 | 3.2 | 3.2 | 0.00 | 0.00 | 0.00 | 43 | 1016.6 |
| 20260905053004 | 22 | 108 | 3.2 | 3.2 | 0.00 | 0.00 | 0.00 | 42 | 1016.6 |
| 20260905052504 | 21 | 144 | 0.0 | 0.0 | 0.00 | 0.00 | 0.00 | 40 | 1016.3 |